sensor_id;sensor_type;location;lat;lon;timestamp;P1;durP1;ratioP1;P2;durP2;ratioP2
18796;SDS011;9526;52.612;13.300;2023-11-19T00:02:00;13.20;;;7.43;;
18796;SDS011;9526;52.612;13.300;2023-11-19T00:04:25;14.77;;;8.23;;
18796;SDS011;9526;52.612;13.300;2023-11-19T00:06:49;15.43;;;7.68;;
18796;SDS011;9526;52.612;13.300;2023-11-19T00:09:13;13.45;;;7.88;;
18796;SDS011;9526;52.612;13.300;2023-11-19T00:11:38;15.50;;;8.02;;
18796;SDS011;9526;52.612;13.300;2023-11-19T00:14:03;14.65;;;7.95;;
18796;SDS011;9526;52.612;13.300;2023-11-19T00:16:30;13.40;;;6.97;;
18796;SDS011;9526;52.612;13.300;2023-11-19T00:18:54;13.47;;;7.03;;
18796;SDS011;9526;52.612;13.300;2023-11-19T00:21:19;15.18;;;7.93;;
18796;SDS011;9526;52.612;13.300;2023-11-19T00:23:43;12.80;;;6.57;;
18796;SDS011;9526;52.612;13.300;2023-11-19T00:26:07;14.48;;;7.72;;
18796;SDS011;9526;52.612;13.300;2023-11-19T00:28:31;13.30;;;7.47;;
18796;SDS011;9526;52.612;13.300;2023-11-19T00:30:55;12.88;;;7.22;;
18796;SDS011;9526;52.612;13.300;2023-11-19T00:33:20;11.47;;;7.00;;
18796;SDS011;9526;52.612;13.300;2023-11-19T00:35:44;15.07;;;8.17;;
18796;SDS011;9526;52.612;13.300;2023-11-19T00:38:10;11.33;;;7.13;;
18796;SDS011;9526;52.612;13.300;2023-11-19T00:40:34;15.57;;;7.80;;
18796;SDS011;9526;52.612;13.300;2023-11-19T00:42:58;16.67;;;7.73;;
18796;SDS011;9526;52.612;13.300;2023-11-19T00:45:23;12.82;;;7.03;;
18796;SDS011;9526;52.612;13.300;2023-11-19T00:47:47;13.63;;;7.32;;
18796;SDS011;9526;52.612;13.300;2023-11-19T00:50:11;14.77;;;7.32;;
18796;SDS011;9526;52.612;13.300;2023-11-19T00:52:35;15.50;;;7.53;;
18796;SDS011;9526;52.612;13.300;2023-11-19T00:55:01;14.27;;;7.57;;
18796;SDS011;9526;52.612;13.300;2023-11-19T00:57:26;13.02;;;7.30;;
18796;SDS011;9526;52.612;13.300;2023-11-19T00:59:49;14.40;;;6.72;;
18796;SDS011;9526;52.612;13.300;2023-11-19T01:02:14;12.73;;;6.90;;
18796;SDS011;9526;52.612;13.300;2023-11-19T01:04:37;15.00;;;6.72;;
18796;SDS011;9526;52.612;13.300;2023-11-19T01:07:02;13.43;;;7.03;;
18796;SDS011;9526;52.612;13.300;2023-11-19T01:09:27;14.57;;;6.47;;
18796;SDS011;9526;52.612;13.300;2023-11-19T01:11:52;13.30;;;6.78;;
18796;SDS011;9526;52.612;13.300;2023-11-19T01:14:17;13.52;;;7.18;;
18796;SDS011;9526;52.612;13.300;2023-11-19T01:16:41;14.07;;;7.38;;
18796;SDS011;9526;52.612;13.300;2023-11-19T01:19:04;10.45;;;5.75;;
18796;SDS011;9526;52.612;13.300;2023-11-19T01:21:38;14.95;;;5.93;;
18796;SDS011;9526;52.612;13.300;2023-11-19T01:24:02;12.45;;;6.68;;
18796;SDS011;9526;52.612;13.300;2023-11-19T01:26:30;13.02;;;6.72;;
18796;SDS011;9526;52.612;13.300;2023-11-19T01:28:55;13.75;;;7.03;;
18796;SDS011;9526;52.612;13.300;2023-11-19T01:31:19;11.35;;;6.60;;
18796;SDS011;9526;52.612;13.300;2023-11-19T01:33:43;13.82;;;6.10;;
18796;SDS011;9526;52.612;13.300;2023-11-19T01:36:08;11.13;;;5.15;;
18796;SDS011;9526;52.612;13.300;2023-11-19T01:38:36;11.43;;;6.43;;
18796;SDS011;9526;52.612;13.300;2023-11-19T01:40:59;9.75;;;6.40;;
18796;SDS011;9526;52.612;13.300;2023-11-19T01:43:31;15.10;;;7.03;;
18796;SDS011;9526;52.612;13.300;2023-11-19T01:46:01;10.60;;;5.23;;
18796;SDS011;9526;52.612;13.300;2023-11-19T01:48:26;12.25;;;5.93;;
18796;SDS011;9526;52.612;13.300;2023-11-19T01:50:50;13.73;;;5.60;;
18796;SDS011;9526;52.612;13.300;2023-11-19T01:53:23;10.63;;;5.97;;
18796;SDS011;9526;52.612;13.300;2023-11-19T01:55:47;8.63;;;5.20;;
18796;SDS011;9526;52.612;13.300;2023-11-19T01:58:11;14.10;;;5.72;;
18796;SDS011;9526;52.612;13.300;2023-11-19T02:00:36;11.00;;;5.78;;
18796;SDS011;9526;52.612;13.300;2023-11-19T02:03:01;10.18;;;5.40;;
18796;SDS011;9526;52.612;13.300;2023-11-19T02:05:26;10.80;;;5.57;;
18796;SDS011;9526;52.612;13.300;2023-11-19T02:07:50;9.70;;;5.57;;
18796;SDS011;9526;52.612;13.300;2023-11-19T02:10:14;9.63;;;5.73;;
18796;SDS011;9526;52.612;13.300;2023-11-19T02:12:40;10.50;;;5.67;;
18796;SDS011;9526;52.612;13.300;2023-11-19T02:15:06;11.13;;;6.17;;
18796;SDS011;9526;52.612;13.300;2023-11-19T02:17:31;12.23;;;5.67;;
18796;SDS011;9526;52.612;13.300;2023-11-19T02:19:57;11.73;;;5.20;;
18796;SDS011;9526;52.612;13.300;2023-11-19T02:22:22;9.83;;;5.90;;
18796;SDS011;9526;52.612;13.300;2023-11-19T02:24:45;10.90;;;5.97;;
18796;SDS011;9526;52.612;13.300;2023-11-19T02:27:14;11.13;;;5.43;;
18796;SDS011;9526;52.612;13.300;2023-11-19T02:29:47;10.88;;;5.85;;
18796;SDS011;9526;52.612;13.300;2023-11-19T02:32:11;9.67;;;5.50;;
18796;SDS011;9526;52.612;13.300;2023-11-19T02:34:35;9.52;;;5.22;;
18796;SDS011;9526;52.612;13.300;2023-11-19T02:36:59;9.75;;;5.68;;
18796;SDS011;9526;52.612;13.300;2023-11-19T02:39:23;10.50;;;5.53;;
18796;SDS011;9526;52.612;13.300;2023-11-19T02:41:48;13.60;;;5.47;;
18796;SDS011;9526;52.612;13.300;2023-11-19T02:44:14;8.43;;;4.88;;
18796;SDS011;9526;52.612;13.300;2023-11-19T02:46:39;11.13;;;5.10;;
18796;SDS011;9526;52.612;13.300;2023-11-19T02:49:04;9.83;;;5.00;;
18796;SDS011;9526;52.612;13.300;2023-11-19T02:51:28;9.30;;;5.43;;
18796;SDS011;9526;52.612;13.300;2023-11-19T02:53:52;10.57;;;5.80;;
18796;SDS011;9526;52.612;13.300;2023-11-19T02:56:16;10.90;;;5.40;;
18796;SDS011;9526;52.612;13.300;2023-11-19T02:58:46;8.82;;;4.53;;
18796;SDS011;9526;52.612;13.300;2023-11-19T03:01:11;10.25;;;5.18;;
18796;SDS011;9526;52.612;13.300;2023-11-19T03:03:46;7.37;;;4.00;;
18796;SDS011;9526;52.612;13.300;2023-11-19T03:06:15;9.93;;;4.95;;
18796;SDS011;9526;52.612;13.300;2023-11-19T03:08:40;8.95;;;4.60;;
18796;SDS011;9526;52.612;13.300;2023-11-19T03:11:04;8.82;;;4.93;;
18796;SDS011;9526;52.612;13.300;2023-11-19T03:13:28;8.33;;;4.80;;
18796;SDS011;9526;52.612;13.300;2023-11-19T03:15:51;8.35;;;4.47;;
18796;SDS011;9526;52.612;13.300;2023-11-19T03:18:15;7.30;;;4.33;;
18796;SDS011;9526;52.612;13.300;2023-11-19T03:20:41;8.98;;;4.72;;
18796;SDS011;9526;52.612;13.300;2023-11-19T03:23:04;9.40;;;4.70;;
18796;SDS011;9526;52.612;13.300;2023-11-19T03:25:28;7.13;;;4.25;;
18796;SDS011;9526;52.612;13.300;2023-11-19T03:27:55;8.67;;;4.17;;
18796;SDS011;9526;52.612;13.300;2023-11-19T03:30:20;7.80;;;4.88;;
18796;SDS011;9526;52.612;13.300;2023-11-19T03:32:55;10.88;;;4.35;;
18796;SDS011;9526;52.612;13.300;2023-11-19T03:35:19;8.90;;;4.28;;
18796;SDS011;9526;52.612;13.300;2023-11-19T03:37:44;8.77;;;4.72;;
18796;SDS011;9526;52.612;13.300;2023-11-19T03:40:08;7.72;;;4.75;;
18796;SDS011;9526;52.612;13.300;2023-11-19T03:42:33;8.45;;;4.55;;
18796;SDS011;9526;52.612;13.300;2023-11-19T03:44:57;7.97;;;4.20;;
18796;SDS011;9526;52.612;13.300;2023-11-19T03:47:21;9.52;;;5.10;;
18796;SDS011;9526;52.612;13.300;2023-11-19T03:49:46;9.98;;;4.93;;
18796;SDS011;9526;52.612;13.300;2023-11-19T03:52:11;10.57;;;4.57;;
18796;SDS011;9526;52.612;13.300;2023-11-19T03:54:43;10.45;;;5.20;;
18796;SDS011;9526;52.612;13.300;2023-11-19T03:57:07;9.67;;;5.07;;
18796;SDS011;9526;52.612;13.300;2023-11-19T03:59:32;7.75;;;4.03;;
18796;SDS011;9526;52.612;13.300;2023-11-19T04:01:56;9.85;;;4.80;;
18796;SDS011;9526;52.612;13.300;2023-11-19T04:04:22;9.27;;;4.82;;
18796;SDS011;9526;52.612;13.300;2023-11-19T04:06:45;12.00;;;4.80;;
18796;SDS011;9526;52.612;13.300;2023-11-19T04:09:09;10.20;;;5.63;;
18796;SDS011;9526;52.612;13.300;2023-11-19T04:11:35;9.43;;;5.35;;
18796;SDS011;9526;52.612;13.300;2023-11-19T04:13:59;8.77;;;4.97;;
18796;SDS011;9526;52.612;13.300;2023-11-19T04:16:26;8.77;;;5.35;;
18796;SDS011;9526;52.612;13.300;2023-11-19T04:18:51;9.73;;;5.65;;
18796;SDS011;9526;52.612;13.300;2023-11-19T04:21:14;9.10;;;5.25;;
18796;SDS011;9526;52.612;13.300;2023-11-19T04:23:38;9.85;;;5.68;;
18796;SDS011;9526;52.612;13.300;2023-11-19T04:26:03;9.30;;;5.22;;
18796;SDS011;9526;52.612;13.300;2023-11-19T04:28:32;11.48;;;5.80;;
18796;SDS011;9526;52.612;13.300;2023-11-19T04:30:56;9.93;;;5.47;;
18796;SDS011;9526;52.612;13.300;2023-11-19T04:33:19;9.55;;;5.35;;
18796;SDS011;9526;52.612;13.300;2023-11-19T04:35:43;10.57;;;5.63;;
18796;SDS011;9526;52.612;13.300;2023-11-19T04:38:07;9.32;;;5.40;;
18796;SDS011;9526;52.612;13.300;2023-11-19T04:40:30;11.27;;;5.28;;
18796;SDS011;9526;52.612;13.300;2023-11-19T04:42:55;9.52;;;4.72;;
18796;SDS011;9526;52.612;13.300;2023-11-19T04:45:20;10.48;;;5.22;;
18796;SDS011;9526;52.612;13.300;2023-11-19T04:47:44;10.35;;;6.00;;
18796;SDS011;9526;52.612;13.300;2023-11-19T04:50:08;9.37;;;5.30;;
18796;SDS011;9526;52.612;13.300;2023-11-19T04:52:33;10.57;;;5.20;;
18796;SDS011;9526;52.612;13.300;2023-11-19T04:54:56;12.83;;;5.50;;
18796;SDS011;9526;52.612;13.300;2023-11-19T04:57:20;8.93;;;5.47;;
18796;SDS011;9526;52.612;13.300;2023-11-19T04:59:44;11.13;;;5.60;;
18796;SDS011;9526;52.612;13.300;2023-11-19T05:02:09;10.73;;;4.78;;
18796;SDS011;9526;52.612;13.300;2023-11-19T05:04:33;8.30;;;5.17;;
18796;SDS011;9526;52.612;13.300;2023-11-19T05:06:56;12.60;;;5.47;;
18796;SDS011;9526;52.612;13.300;2023-11-19T05:09:20;10.18;;;5.03;;
18796;SDS011;9526;52.612;13.300;2023-11-19T05:11:44;9.18;;;5.50;;
18796;SDS011;9526;52.612;13.300;2023-11-19T05:14:10;7.43;;;4.83;;
18796;SDS011;9526;52.612;13.300;2023-11-19T05:16:34;17.73;;;5.20;;
18796;SDS011;9526;52.612;13.300;2023-11-19T05:18:59;10.53;;;5.93;;
18796;SDS011;9526;52.612;13.300;2023-11-19T05:21:23;10.60;;;5.30;;
18796;SDS011;9526;52.612;13.300;2023-11-19T05:23:47;9.25;;;4.85;;
18796;SDS011;9526;52.612;13.300;2023-11-19T05:26:16;8.27;;;4.70;;
18796;SDS011;9526;52.612;13.300;2023-11-19T05:28:41;9.15;;;4.90;;
18796;SDS011;9526;52.612;13.300;2023-11-19T05:31:05;9.67;;;4.63;;
18796;SDS011;9526;52.612;13.300;2023-11-19T05:33:29;8.87;;;5.10;;
18796;SDS011;9526;52.612;13.300;2023-11-19T05:35:54;10.43;;;5.03;;
18796;SDS011;9526;52.612;13.300;2023-11-19T05:38:18;8.33;;;4.57;;
18796;SDS011;9526;52.612;13.300;2023-11-19T05:40:42;7.27;;;3.83;;
18796;SDS011;9526;52.612;13.300;2023-11-19T05:43:06;9.87;;;4.67;;
18796;SDS011;9526;52.612;13.300;2023-11-19T05:45:31;6.87;;;3.97;;
18796;SDS011;9526;52.612;13.300;2023-11-19T05:47:55;7.35;;;4.32;;
18796;SDS011;9526;52.612;13.300;2023-11-19T05:50:19;9.00;;;4.27;;
18796;SDS011;9526;52.612;13.300;2023-11-19T05:52:44;5.27;;;3.43;;
18796;SDS011;9526;52.612;13.300;2023-11-19T05:55:08;9.32;;;4.50;;
18796;SDS011;9526;52.612;13.300;2023-11-19T05:57:32;6.82;;;4.05;;
18796;SDS011;9526;52.612;13.300;2023-11-19T06:00:08;7.03;;;3.80;;
18796;SDS011;9526;52.612;13.300;2023-11-19T06:02:34;8.07;;;4.07;;
18796;SDS011;9526;52.612;13.300;2023-11-19T06:04:59;6.37;;;3.90;;
18796;SDS011;9526;52.612;13.300;2023-11-19T06:07:22;7.37;;;3.93;;
18796;SDS011;9526;52.612;13.300;2023-11-19T06:09:48;8.98;;;4.55;;
18796;SDS011;9526;52.612;13.300;2023-11-19T06:12:11;7.80;;;4.20;;
18796;SDS011;9526;52.612;13.300;2023-11-19T06:14:35;7.07;;;4.27;;
18796;SDS011;9526;52.612;13.300;2023-11-19T06:16:59;7.00;;;4.20;;
18796;SDS011;9526;52.612;13.300;2023-11-19T06:19:23;6.63;;;3.88;;
18796;SDS011;9526;52.612;13.300;2023-11-19T06:21:51;6.82;;;4.30;;
18796;SDS011;9526;52.612;13.300;2023-11-19T06:24:15;5.70;;;3.70;;
18796;SDS011;9526;52.612;13.300;2023-11-19T06:26:40;5.83;;;3.63;;
18796;SDS011;9526;52.612;13.300;2023-11-19T06:29:03;7.55;;;4.20;;
18796;SDS011;9526;52.612;13.300;2023-11-19T06:31:27;9.27;;;4.85;;
18796;SDS011;9526;52.612;13.300;2023-11-19T06:33:51;7.72;;;4.10;;
18796;SDS011;9526;52.612;13.300;2023-11-19T06:36:15;6.43;;;3.75;;
18796;SDS011;9526;52.612;13.300;2023-11-19T06:38:39;6.45;;;4.15;;
18796;SDS011;9526;52.612;13.300;2023-11-19T06:41:07;7.10;;;4.18;;
18796;SDS011;9526;52.612;13.300;2023-11-19T06:43:32;7.72;;;4.30;;
18796;SDS011;9526;52.612;13.300;2023-11-19T06:45:59;7.22;;;4.25;;
18796;SDS011;9526;52.612;13.300;2023-11-19T06:48:23;14.50;;;4.18;;
18796;SDS011;9526;52.612;13.300;2023-11-19T06:50:47;7.65;;;4.32;;
18796;SDS011;9526;52.612;13.300;2023-11-19T06:53:10;8.35;;;4.45;;
18796;SDS011;9526;52.612;13.300;2023-11-19T06:55:34;6.97;;;4.13;;
18796;SDS011;9526;52.612;13.300;2023-11-19T06:57:59;7.78;;;4.25;;
18796;SDS011;9526;52.612;13.300;2023-11-19T07:00:25;6.63;;;4.18;;
18796;SDS011;9526;52.612;13.300;2023-11-19T07:02:48;8.35;;;3.92;;
18796;SDS011;9526;52.612;13.300;2023-11-19T07:05:13;5.97;;;3.78;;
18796;SDS011;9526;52.612;13.300;2023-11-19T07:07:36;6.32;;;3.90;;
18796;SDS011;9526;52.612;13.300;2023-11-19T07:10:02;6.15;;;3.70;;
18796;SDS011;9526;52.612;13.300;2023-11-19T07:12:27;6.68;;;3.35;;
18796;SDS011;9526;52.612;13.300;2023-11-19T07:14:51;5.97;;;3.40;;
18796;SDS011;9526;52.612;13.300;2023-11-19T07:17:16;6.20;;;3.88;;
18796;SDS011;9526;52.612;13.300;2023-11-19T07:19:39;8.00;;;3.83;;
18796;SDS011;9526;52.612;13.300;2023-11-19T07:22:03;7.25;;;3.92;;
18796;SDS011;9526;52.612;13.300;2023-11-19T07:24:27;8.27;;;4.15;;
18796;SDS011;9526;52.612;13.300;2023-11-19T07:26:51;6.30;;;3.75;;
18796;SDS011;9526;52.612;13.300;2023-11-19T07:29:15;6.75;;;4.35;;
18796;SDS011;9526;52.612;13.300;2023-11-19T07:31:42;7.55;;;4.20;;
18796;SDS011;9526;52.612;13.300;2023-11-19T07:34:07;6.43;;;3.88;;
18796;SDS011;9526;52.612;13.300;2023-11-19T07:36:32;6.95;;;4.18;;
18796;SDS011;9526;52.612;13.300;2023-11-19T07:38:55;6.35;;;3.72;;
18796;SDS011;9526;52.612;13.300;2023-11-19T07:41:19;5.95;;;3.63;;
18796;SDS011;9526;52.612;13.300;2023-11-19T07:43:43;6.60;;;4.05;;
18796;SDS011;9526;52.612;13.300;2023-11-19T07:46:10;7.32;;;3.92;;
18796;SDS011;9526;52.612;13.300;2023-11-19T07:48:35;6.63;;;3.85;;
18796;SDS011;9526;52.612;13.300;2023-11-19T07:51:00;7.53;;;4.45;;
18796;SDS011;9526;52.612;13.300;2023-11-19T07:53:23;6.68;;;4.18;;
18796;SDS011;9526;52.612;13.300;2023-11-19T07:55:47;7.50;;;4.28;;
18796;SDS011;9526;52.612;13.300;2023-11-19T07:58:11;6.90;;;4.13;;
18796;SDS011;9526;52.612;13.300;2023-11-19T08:00:35;5.75;;;3.72;;
18796;SDS011;9526;52.612;13.300;2023-11-19T08:02:58;7.30;;;3.80;;
18796;SDS011;9526;52.612;13.300;2023-11-19T08:05:22;6.45;;;4.10;;
18796;SDS011;9526;52.612;13.300;2023-11-19T08:07:48;7.25;;;4.20;;
18796;SDS011;9526;52.612;13.300;2023-11-19T08:10:12;7.60;;;4.50;;
18796;SDS011;9526;52.612;13.300;2023-11-19T08:12:36;7.68;;;4.35;;
18796;SDS011;9526;52.612;13.300;2023-11-19T08:15:00;6.93;;;4.47;;
18796;SDS011;9526;52.612;13.300;2023-11-19T08:17:24;6.55;;;4.00;;
18796;SDS011;9526;52.612;13.300;2023-11-19T08:19:48;7.43;;;4.35;;
18796;SDS011;9526;52.612;13.300;2023-11-19T08:22:11;8.63;;;4.32;;
18796;SDS011;9526;52.612;13.300;2023-11-19T08:24:37;8.60;;;4.45;;
18796;SDS011;9526;52.612;13.300;2023-11-19T08:27:00;7.32;;;4.28;;
18796;SDS011;9526;52.612;13.300;2023-11-19T08:29:24;7.43;;;4.63;;
18796;SDS011;9526;52.612;13.300;2023-11-19T08:31:49;10.45;;;4.85;;
18796;SDS011;9526;52.612;13.300;2023-11-19T08:34:13;8.82;;;4.50;;
18796;SDS011;9526;52.612;13.300;2023-11-19T08:36:37;8.73;;;4.00;;
18796;SDS011;9526;52.612;13.300;2023-11-19T08:39:01;7.70;;;4.13;;
18796;SDS011;9526;52.612;13.300;2023-11-19T08:41:26;8.18;;;4.53;;
18796;SDS011;9526;52.612;13.300;2023-11-19T08:43:50;7.28;;;4.47;;
18796;SDS011;9526;52.612;13.300;2023-11-19T08:46:14;6.85;;;3.90;;
18796;SDS011;9526;52.612;13.300;2023-11-19T08:48:38;6.65;;;4.22;;
18796;SDS011;9526;52.612;13.300;2023-11-19T08:51:02;11.32;;;4.90;;
18796;SDS011;9526;52.612;13.300;2023-11-19T08:53:26;6.80;;;4.22;;
18796;SDS011;9526;52.612;13.300;2023-11-19T08:55:50;5.82;;;4.03;;
18796;SDS011;9526;52.612;13.300;2023-11-19T08:58:15;8.57;;;4.80;;
18796;SDS011;9526;52.612;13.300;2023-11-19T09:00:39;11.77;;;4.93;;
18796;SDS011;9526;52.612;13.300;2023-11-19T09:03:03;9.60;;;4.55;;
18796;SDS011;9526;52.612;13.300;2023-11-19T09:05:27;8.82;;;4.60;;
18796;SDS011;9526;52.612;13.300;2023-11-19T09:07:51;9.15;;;5.10;;
18796;SDS011;9526;52.612;13.300;2023-11-19T09:10:14;7.10;;;4.45;;
18796;SDS011;9526;52.612;13.300;2023-11-19T09:12:38;7.63;;;4.65;;
18796;SDS011;9526;52.612;13.300;2023-11-19T09:15:03;8.18;;;4.85;;
18796;SDS011;9526;52.612;13.300;2023-11-19T09:17:28;9.65;;;5.53;;
18796;SDS011;9526;52.612;13.300;2023-11-19T09:19:52;11.35;;;6.22;;
18796;SDS011;9526;52.612;13.300;2023-11-19T09:22:15;13.23;;;8.05;;
18796;SDS011;9526;52.612;13.300;2023-11-19T09:24:39;8.02;;;4.90;;
18796;SDS011;9526;52.612;13.300;2023-11-19T09:27:04;8.23;;;4.03;;
18796;SDS011;9526;52.612;13.300;2023-11-19T09:29:28;5.45;;;4.10;;
18796;SDS011;9526;52.612;13.300;2023-11-19T09:31:56;9.35;;;4.15;;
18796;SDS011;9526;52.612;13.300;2023-11-19T09:34:20;5.72;;;4.25;;
18796;SDS011;9526;52.612;13.300;2023-11-19T09:36:44;6.15;;;3.53;;
18796;SDS011;9526;52.612;13.300;2023-11-19T09:39:07;4.70;;;3.13;;
18796;SDS011;9526;52.612;13.300;2023-11-19T09:41:30;5.57;;;3.50;;
18796;SDS011;9526;52.612;13.300;2023-11-19T09:43:56;4.93;;;3.25;;
18796;SDS011;9526;52.612;13.300;2023-11-19T09:46:20;6.97;;;3.22;;
18796;SDS011;9526;52.612;13.300;2023-11-19T09:48:47;3.92;;;2.83;;
18796;SDS011;9526;52.612;13.300;2023-11-19T09:51:14;8.07;;;3.85;;
18796;SDS011;9526;52.612;13.300;2023-11-19T09:53:37;8.98;;;4.85;;
18796;SDS011;9526;52.612;13.300;2023-11-19T09:56:03;3.85;;;2.83;;
18796;SDS011;9526;52.612;13.300;2023-11-19T09:58:29;7.45;;;4.25;;
18796;SDS011;9526;52.612;13.300;2023-11-19T10:00:53;10.10;;;3.92;;
18796;SDS011;9526;52.612;13.300;2023-11-19T10:03:39;12.02;;;7.22;;
18796;SDS011;9526;52.612;13.300;2023-11-19T10:06:07;10.93;;;6.57;;
18796;SDS011;9526;52.612;13.300;2023-11-19T10:08:32;8.27;;;5.25;;
18796;SDS011;9526;52.612;13.300;2023-11-19T10:10:56;15.27;;;7.50;;
18796;SDS011;9526;52.612;13.300;2023-11-19T10:13:22;16.33;;;8.52;;
18796;SDS011;9526;52.612;13.300;2023-11-19T10:15:52;6.65;;;4.07;;
18796;SDS011;9526;52.612;13.300;2023-11-19T10:18:16;6.97;;;4.55;;
18796;SDS011;9526;52.612;13.300;2023-11-19T10:20:40;6.13;;;4.13;;
18796;SDS011;9526;52.612;13.300;2023-11-19T10:23:07;7.72;;;3.70;;
18796;SDS011;9526;52.612;13.300;2023-11-19T10:25:31;9.35;;;4.10;;
18796;SDS011;9526;52.612;13.300;2023-11-19T10:27:56;7.47;;;3.92;;
18796;SDS011;9526;52.612;13.300;2023-11-19T10:30:20;3.45;;;2.63;;
18796;SDS011;9526;52.612;13.300;2023-11-19T10:32:44;5.65;;;2.83;;
18796;SDS011;9526;52.612;13.300;2023-11-19T10:35:08;4.45;;;2.95;;
18796;SDS011;9526;52.612;13.300;2023-11-19T10:37:34;7.78;;;3.17;;
18796;SDS011;9526;52.612;13.300;2023-11-19T10:40:01;3.60;;;2.90;;
18796;SDS011;9526;52.612;13.300;2023-11-19T10:42:26;5.32;;;3.03;;
18796;SDS011;9526;52.612;13.300;2023-11-19T10:44:50;4.53;;;2.60;;
18796;SDS011;9526;52.612;13.300;2023-11-19T10:47:14;5.50;;;2.53;;
18796;SDS011;9526;52.612;13.300;2023-11-19T10:49:40;6.28;;;2.70;;
18796;SDS011;9526;52.612;13.300;2023-11-19T10:52:03;4.18;;;2.75;;
18796;SDS011;9526;52.612;13.300;2023-11-19T10:54:29;6.78;;;2.53;;
18796;SDS011;9526;52.612;13.300;2023-11-19T10:56:58;6.35;;;2.38;;
18796;SDS011;9526;52.612;13.300;2023-11-19T10:59:22;6.20;;;2.40;;
18796;SDS011;9526;52.612;13.300;2023-11-19T11:01:53;4.50;;;2.33;;
18796;SDS011;9526;52.612;13.300;2023-11-19T11:04:19;7.03;;;2.25;;
18796;SDS011;9526;52.612;13.300;2023-11-19T11:06:47;13.35;;;3.42;;
18796;SDS011;9526;52.612;13.300;2023-11-19T11:09:12;9.65;;;4.10;;
18796;SDS011;9526;52.612;13.300;2023-11-19T11:11:37;13.10;;;3.60;;
18796;SDS011;9526;52.612;13.300;2023-11-19T11:14:03;7.80;;;3.08;;
18796;SDS011;9526;52.612;13.300;2023-11-19T11:16:28;5.40;;;2.42;;
18796;SDS011;9526;52.612;13.300;2023-11-19T11:18:54;8.50;;;2.40;;
18796;SDS011;9526;52.612;13.300;2023-11-19T11:21:20;6.45;;;2.47;;
18796;SDS011;9526;52.612;13.300;2023-11-19T11:24:05;7.72;;;2.35;;
18796;SDS011;9526;52.612;13.300;2023-11-19T11:27:09;5.10;;;2.13;;
18796;SDS011;9526;52.612;13.300;2023-11-19T11:30:10;8.38;;;2.47;;
18796;SDS011;9526;52.612;13.300;2023-11-19T11:32:50;11.02;;;3.28;;
18796;SDS011;9526;52.612;13.300;2023-11-19T11:35:30;12.20;;;3.10;;
18796;SDS011;9526;52.612;13.300;2023-11-19T11:38:08;8.38;;;2.63;;
18796;SDS011;9526;52.612;13.300;2023-11-19T11:40:32;9.65;;;3.25;;
18796;SDS011;9526;52.612;13.300;2023-11-19T11:42:57;10.85;;;3.65;;
18796;SDS011;9526;52.612;13.300;2023-11-19T11:45:34;9.32;;;3.20;;
18796;SDS011;9526;52.612;13.300;2023-11-19T11:50:52;11.65;;;4.13;;
18796;SDS011;9526;52.612;13.300;2023-11-19T11:53:20;11.48;;;3.65;;
18796;SDS011;9526;52.612;13.300;2023-11-19T11:55:54;10.30;;;2.65;;
18796;SDS011;9526;52.612;13.300;2023-11-19T11:58:21;16.13;;;2.90;;
18796;SDS011;9526;52.612;13.300;2023-11-19T12:00:50;13.50;;;3.10;;
18796;SDS011;9526;52.612;13.300;2023-11-19T12:03:16;18.25;;;3.35;;
18796;SDS011;9526;52.612;13.300;2023-11-19T12:05:44;17.50;;;3.00;;
18796;SDS011;9526;52.612;13.300;2023-11-19T12:08:08;12.27;;;3.25;;
18796;SDS011;9526;52.612;13.300;2023-11-19T12:10:36;14.43;;;3.78;;
18796;SDS011;9526;52.612;13.300;2023-11-19T12:13:09;14.73;;;3.85;;
18796;SDS011;9526;52.612;13.300;2023-11-19T12:15:35;14.48;;;3.60;;
18796;SDS011;9526;52.612;13.300;2023-11-19T12:18:35;13.70;;;3.28;;
18796;SDS011;9526;52.612;13.300;2023-11-19T12:20:59;10.45;;;2.65;;
18796;SDS011;9526;52.612;13.300;2023-11-19T12:23:23;22.17;;;4.82;;
18796;SDS011;9526;52.612;13.300;2023-11-19T12:25:47;13.13;;;3.17;;
18796;SDS011;9526;52.612;13.300;2023-11-19T12:28:11;18.95;;;3.50;;
18796;SDS011;9526;52.612;13.300;2023-11-19T12:30:36;11.98;;;4.13;;
18796;SDS011;9526;52.612;13.300;2023-11-19T12:33:07;13.95;;;3.50;;
18796;SDS011;9526;52.612;13.300;2023-11-19T12:35:32;10.80;;;3.33;;
18796;SDS011;9526;52.612;13.300;2023-11-19T12:37:55;14.63;;;4.55;;
18796;SDS011;9526;52.612;13.300;2023-11-19T12:40:19;14.48;;;3.83;;
18796;SDS011;9526;52.612;13.300;2023-11-19T12:42:45;17.17;;;4.95;;
18796;SDS011;9526;52.612;13.300;2023-11-19T12:45:09;17.35;;;4.53;;
18796;SDS011;9526;52.612;13.300;2023-11-19T12:47:33;19.85;;;4.32;;
18796;SDS011;9526;52.612;13.300;2023-11-19T12:49:58;16.60;;;3.70;;
18796;SDS011;9526;52.612;13.300;2023-11-19T12:52:22;20.88;;;5.20;;
18796;SDS011;9526;52.612;13.300;2023-11-19T12:54:46;13.35;;;5.18;;
18796;SDS011;9526;52.612;13.300;2023-11-19T12:57:09;28.80;;;10.30;;
18796;SDS011;9526;52.612;13.300;2023-11-19T12:59:33;29.80;;;9.57;;
18796;SDS011;9526;52.612;13.300;2023-11-19T13:01:57;18.52;;;6.45;;
18796;SDS011;9526;52.612;13.300;2023-11-19T13:04:21;19.45;;;4.13;;
18796;SDS011;9526;52.612;13.300;2023-11-19T13:06:47;13.43;;;3.97;;
18796;SDS011;9526;52.612;13.300;2023-11-19T13:09:23;19.92;;;3.80;;
18796;SDS011;9526;52.612;13.300;2023-11-19T13:11:48;16.10;;;3.80;;
18796;SDS011;9526;52.612;13.300;2023-11-19T13:14:11;15.65;;;4.07;;
18796;SDS011;9526;52.612;13.300;2023-11-19T13:16:36;13.00;;;3.40;;
18796;SDS011;9526;52.612;13.300;2023-11-19T13:19:01;14.18;;;3.72;;
18796;SDS011;9526;52.612;13.300;2023-11-19T13:21:25;13.40;;;3.03;;
18796;SDS011;9526;52.612;13.300;2023-11-19T13:23:50;16.15;;;3.55;;
18796;SDS011;9526;52.612;13.300;2023-11-19T13:26:14;14.60;;;3.33;;
18796;SDS011;9526;52.612;13.300;2023-11-19T13:28:38;17.98;;;3.70;;
18796;SDS011;9526;52.612;13.300;2023-11-19T13:31:01;10.90;;;3.55;;
18796;SDS011;9526;52.612;13.300;2023-11-19T13:33:25;13.25;;;2.80;;
18796;SDS011;9526;52.612;13.300;2023-11-19T13:35:49;18.02;;;3.67;;
18796;SDS011;9526;52.612;13.300;2023-11-19T13:38:13;11.20;;;3.13;;
18796;SDS011;9526;52.612;13.300;2023-11-19T13:40:38;17.67;;;3.50;;
18796;SDS011;9526;52.612;13.300;2023-11-19T13:43:02;22.15;;;3.40;;
18796;SDS011;9526;52.612;13.300;2023-11-19T13:45:26;14.25;;;3.00;;
18796;SDS011;9526;52.612;13.300;2023-11-19T13:47:49;18.17;;;3.60;;
18796;SDS011;9526;52.612;13.300;2023-11-19T13:50:13;12.55;;;3.58;;
18796;SDS011;9526;52.612;13.300;2023-11-19T13:52:39;18.48;;;3.45;;
18796;SDS011;9526;52.612;13.300;2023-11-19T13:55:06;16.02;;;3.30;;
18796;SDS011;9526;52.612;13.300;2023-11-19T13:57:33;14.15;;;3.58;;
18796;SDS011;9526;52.612;13.300;2023-11-19T13:59:57;15.13;;;3.55;;
18796;SDS011;9526;52.612;13.300;2023-11-19T14:02:20;21.98;;;4.30;;
18796;SDS011;9526;52.612;13.300;2023-11-19T14:04:44;22.20;;;5.35;;
18796;SDS011;9526;52.612;13.300;2023-11-19T14:07:08;19.48;;;5.63;;
18796;SDS011;9526;52.612;13.300;2023-11-19T14:09:32;18.75;;;4.70;;
18796;SDS011;9526;52.612;13.300;2023-11-19T14:11:55;21.60;;;4.35;;
18796;SDS011;9526;52.612;13.300;2023-11-19T14:14:20;24.20;;;6.47;;
18796;SDS011;9526;52.612;13.300;2023-11-19T14:16:44;25.55;;;9.27;;
18796;SDS011;9526;52.612;13.300;2023-11-19T14:19:08;32.35;;;7.75;;
18796;SDS011;9526;52.612;13.300;2023-11-19T14:21:31;19.15;;;8.30;;
18796;SDS011;9526;52.612;13.300;2023-11-19T14:23:55;26.15;;;6.13;;
18796;SDS011;9526;52.612;13.300;2023-11-19T14:26:19;19.27;;;4.10;;
18796;SDS011;9526;52.612;13.300;2023-11-19T14:28:43;18.52;;;4.07;;
18796;SDS011;9526;52.612;13.300;2023-11-19T14:31:10;23.92;;;4.65;;
18796;SDS011;9526;52.612;13.300;2023-11-19T14:33:34;21.30;;;3.65;;